Overton RPC :: 150-B

liberation: 2021-09-04  07:30     latitude: 34.254868     longitude: -85.871559 43 birds
# LOFT PRING MILES ARRIVAL SPEED ToWin
1 VALHALLA LOFTS IF21-VALH-0154 152.211 2021-09-04 11:03:42.592 1253.526 00:00:00
2 VALHALLA LOFTS IF21-E-1416 152.211 2021-09-04 11:03:43.215 1253.465 00:00:01
3 VALHALLA LOFTS IF21-E-1445 152.211 2021-09-04 11:03:43.592 1253.428 00:00:01
4 VALHALLA LOFTS IF21-VALH-0147 152.211 2021-09-04 11:03:48.977 1252.902 00:00:06
5 VALHALLA LOFTS IF21-VALH-0170 152.211 2021-09-04 11:03:51.432 1252.663 00:00:09
6 VALHALLA LOFTS IF21-E-1450 152.211 2021-09-04 11:03:51.802 1252.626 00:00:09
7 VALHALLA LOFTS IF21-VALH-0198 152.211 2021-09-04 11:03:54.469 1252.366 00:00:12
8 VALHALLA LOFTS IF21-E-1442 152.211 2021-09-04 11:03:55.631 1252.253 00:00:13
9 VALHALLA LOFTS IF21-VALH-0130 152.211 2021-09-04 11:03:58.485 1251.974 00:00:16
10 VALHALLA LOFTS IF21-VALH-0158 152.211 2021-09-04 11:04:01.227 1251.707 00:00:19
11 VALHALLA LOFTS IF21-VALH-0135 152.211 2021-09-04 11:04:15.059 1250.360 00:00:32
12 VALHALLA LOFTS AU21-ARPU-8997 152.211 2021-09-04 11:04:16.253 1250.244 00:00:34
13 VALHALLA LOFTS AU21-ARPU-8991 152.211 2021-09-04 11:05:05.168 1245.505 00:01:23
14 VALHALLA LOFTS IF21-E-1413 152.211 2021-09-04 11:05:12.813 1244.768 00:01:30
15 VALHALLA LOFTS IF21-VALH-0153 152.211 2021-09-04 11:15:05.784 1190.116 00:11:23
16 VALHALLA LOFTS AU21-POP-0536 152.211 2021-09-04 11:15:55.616 1185.741 00:12:13
17 PHILBETTER LOFT IF21-E-1421 147.897 2021-09-04 11:33:32.967 1068.775 00:35:54
18 VALHALLA LOFTS IF21-VALH-0111 152.211 2021-09-04 11:41:28.369 1065.288 00:37:46
19 PHILBETTER LOFT AU21-ARPU-8998 147.897 2021-09-04 11:41:44.370 1034.003 00:44:05
20 VALHALLA LOFTS IF21-VALH-0102 152.211 2021-09-04 12:00:25.115 990.653 00:56:43
21 PHILBETTER LOFT IF21-E-1562 147.897 2021-09-04 12:00:18.276 962.986 01:02:39
22 VALHALLA LOFTS IF21-E-1495 152.211 2021-09-04 12:24:21.737 910.072 01:20:39
23 VALHALLA LOFTS IF21-VALH-0177 152.211 2021-09-04 12:24:22.919 910.011 01:20:40
24 VALHALLA LOFTS AU21-BREW-2151 152.211 2021-09-04 12:24:55.511 908.335 01:21:13
25 VALHALLA LOFTS AU21-ARPU-8999 152.211 2021-09-04 12:24:59.873 908.111 01:21:17
26 VALHALLA LOFTS IF21-E-1415 152.211 2021-09-04 12:28:01.970 898.864 01:24:19
27 VALHALLA LOFTS IF21-E-1592 152.211 2021-09-04 12:28:09.874 898.467 01:24:27
28 VALHALLA LOFTS AU21-BREW-2154 152.211 2021-09-04 12:45:20.880 849.509 01:41:38
29 LET IT GO LOFT IF21-ORP-0403 155.558 2021-09-04 12:55:32.414 841.011 01:47:08
30 VALHALLA LOFTS IF21-E-1411 152.211 2021-09-04 12:48:33.274 840.958 01:44:51
31 LET IT GO LOFT IF21-ORP-0409 155.558 2021-09-04 12:55:36.816 840.822 01:47:12
32 LET IT GO LOFT IF21-E-1410 155.558 2021-09-04 13:29:46.752 760.975 02:21:22
33 LET IT GO LOFT IF21-E-1459 155.558 2021-09-04 13:29:58.937 760.546 02:21:34
34 LET IT GO LOFT IF21-E-1401 155.558 2021-09-04 13:30:08.003 760.226 02:21:43
35 PHILBETTER LOFT IF21-E-1554 147.897 2021-09-04 14:26:56.933 624.296 03:29:18
36 VALHALLA LOFTS IF21-VALH-0101 152.211 2021-09-04 15:47:47.359 538.161 04:44:05
37 PHILBETTER LOFT IF21-E-1426 147.897 2021-09-04 16:20:41.155 490.496 05:23:02
38 VALHALLA LOFTS IF21-VALH-0104 152.211 2021-09-04 17:19:49.575 454.186 06:16:07
39 PHILBETTER LOFT AU21-ARPU-8973 147.897 2021-09-04 17:38:56.280 427.465 06:41:17
40 PHILBETTER LOFT IF21-E-1425 147.897 2021-09-04 18:39:11.191 388.979 07:41:32
LET IT GO LOFT IF21-E-1456 0 0000-00-00 00:00:00.000 0.000 00:00:00
VALHALLA LOFTS IF21-E-1444 0 0000-00-00 00:00:00.000 0.000 00:00:00
VALHALLA LOFTS IF21-VALH-0180 0 0000-00-00 00:00:00.000 0.000 00:00:00